Time;durP1;ratioP1;P1;durP2;ratioP2;P2;SDS_P1;SDS_P2;PMS_P1;PMS_P2;Temp;Humidity;BMP_temperature;BMP_pressure;BME280_temperature;BME280_humidity;BME280_pressure;Samples;Min_cycle;Max_cycle;Signal;HPM_P1;HPM_P2
2022/08/12 00:43:48;;;;;;;7.43;3.13;;;;;;;21.02;100.00;96518.81;5086281;28;20079;-40
2022/08/12 00:46:31;;;;;;;6.32;3.47;;;;;;;21.10;100.00;96502.53;5084754;28;20087;-40
2022/08/12 00:49:01;;;;;;;4.65;3.05;;;;;;;21.26;100.00;96509.28;5081426;28;20087;-42
2022/08/12 00:52:04;;;;;;;5.07;3.50;;;;;;;21.19;100.00;96508.47;5080196;28;20094;-39
2022/08/12 00:54:20;;;;;;;5.82;3.15;;;;;;;21.23;100.00;96507.88;5075274;28;20486;-39
2022/08/12 00:56:50;;;;;;;4.45;3.13;;;;;;;21.19;100.00;96509.31;5087161;28;20087;-46
2022/08/12 00:59:19;;;;;;;4.80;3.60;;;;;;;21.13;100.00;96502.13;5080572;28;20076;-41
2022/08/12 01:01:48;;;;;;;5.47;3.40;;;;;;;21.01;100.00;96504.59;5076055;28;20088;-40
2022/08/12 01:13:02;;;;;;;8.38;3.83;;;;;;;20.65;100.00;96504.22;5083255;28;20092;-43
2022/08/12 01:15:48;;;;;;;6.88;3.60;;;;;;;20.72;100.00;96502.38;5075440;28;20084;-41
2022/08/12 01:18:17;;;;;;;3.85;3.38;;;;;;;20.73;100.00;96504.03;5069799;28;20080;-41
2022/08/12 01:20:56;;;;;;;8.85;3.85;;;;;;;20.62;100.00;96502.81;5083223;28;20080;-40
2022/08/12 01:23:51;;;;;;;4.65;3.35;;;;;;;20.56;100.00;96500.94;5078301;28;20086;-40
2022/08/12 01:26:24;;;;;;;5.43;3.40;;;;;;;20.52;100.00;96505.06;5082699;28;20076;-45
2022/08/12 01:28:55;;;;;;;6.07;3.88;;;;;;;20.61;100.00;96504.66;5078666;28;20092;-45
2022/08/12 01:31:28;;;;;;;4.10;3.50;;;;;;;20.50;100.00;96504.41;5069061;28;20538;-43
2022/08/12 01:34:00;;;;;;;;;;;;;;;20.41;100.00;96500.31;5084999;28;20079;-41
2022/08/12 01:36:31;;;;;;;6.18;3.50;;;;;;;20.43;100.00;96496.38;5079768;28;19969;-46
2022/08/12 01:38:59;;;;;;;;;;;;;;;20.62;100.00;96508.16;5082947;28;20087;-41
2022/08/12 01:41:30;;;;;;;6.15;4.00;;;;;;;20.36;100.00;96496.38;5081281;28;19960;-42
2022/08/12 01:44:01;;;;;;;5.88;3.88;;;;;;;20.30;100.00;96499.03;5075919;28;20076;-44
2022/08/12 01:46:39;;;;;;;4.22;3.70;;;;;;;20.24;100.00;96489.97;5080973;28;20088;-44
2022/08/12 01:49:22;;;;;;;6.85;3.88;;;;;;;20.15;100.00;96483.97;5075437;28;20056;-42
2022/08/12 01:51:56;;;;;;;4.90;3.75;;;;;;;20.15;100.00;96491.19;5086598;28;20142;-44
2022/08/12 01:54:45;;;;;;;7.32;4.35;;;;;;;20.13;100.00;96495.91;5082482;28;20072;-39
2022/08/12 01:57:19;;;;;;;7.22;3.92;;;;;;;19.85;100.00;96488.03;5075781;28;20087;-41
2022/08/12 02:00:11;;;;;;;4.70;3.85;;;;;;;20.19;100.00;96486.25;5077067;28;20072;-38
2022/08/12 02:02:40;;;;;;;4.47;4.00;;;;;;;20.26;100.00;96493.25;5074272;28;20079;-39
2022/08/12 02:11:17;;;;;;;5.15;4.03;;;;;;;20.08;100.00;96493.88;5078460;28;20102;-42
2022/08/12 02:14:12;;;;;;;8.05;4.32;;;;;;;20.12;100.00;96481.72;5072719;28;20080;-41
2022/08/12 02:17:08;;;;;;;5.55;4.10;;;;;;;20.36;100.00;96479.47;5080039;28;20477;-44
2022/08/12 02:19:48;;;;;;;5.55;3.80;;;;;;;20.47;100.00;96480.69;5074977;28;20561;-40
2022/08/12 02:22:28;;;;;;;6.25;4.45;;;;;;;20.54;100.00;96479.72;5085148;28;20063;-39
2022/08/12 02:25:02;;;;;;;5.17;3.80;;;;;;;20.41;100.00;96473.50;5068848;28;20080;-39
2022/08/12 02:27:34;;;;;;;6.85;3.55;;;;;;;20.13;100.00;96475.34;5075807;28;20804;-39
2022/08/12 02:30:07;;;;;;;7.38;3.83;;;;;;;20.21;100.00;96471.66;5082372;28;20091;-41
2022/08/12 02:32:38;;;;;;;4.40;4.00;;;;;;;20.23;100.00;96466.06;5081397;28;20087;-46
2022/08/12 02:35:10;;;;;;;6.35;3.90;;;;;;;20.13;100.00;96461.97;5086400;28;20143;-40
2022/08/12 02:37:40;;;;;;;4.35;3.67;;;;;;;20.20;100.00;96472.69;5070729;28;20534;-43
2022/08/12 02:40:11;;;;;;;4.70;3.83;;;;;;;20.06;100.00;96466.50;5081689;28;20091;-43
2022/08/12 02:42:48;;;;;;;6.40;4.18;;;;;;;20.02;100.00;96470.56;5071607;28;20084;-40
2022/08/12 02:45:23;;;;;;;4.97;3.95;;;;;;;19.96;100.00;96468.75;5074900;28;20084;-40
2022/08/12 02:47:54;;;;;;;8.05;3.90;;;;;;;19.96;100.00;96465.22;5080622;28;20076;-40
2022/08/12 02:50:29;;;;;;;6.10;3.75;;;;;;;19.91;100.00;96457.81;5074928;28;20099;-42
2022/08/12 02:52:58;;;;;;;9.52;4.25;;;;;;;19.82;100.00;96473.25;5068159;28;20080;-41
2022/08/12 02:55:29;;;;;;;4.72;4.07;;;;;;;19.86;100.00;96468.31;5075193;28;20087;-40
2022/08/12 02:58:06;;;;;;;6.65;4.10;;;;;;;19.62;100.00;96462.44;5075151;28;20131;-39
2022/08/12 03:00:42;;;;;;;4.65;3.72;;;;;;;19.70;100.00;96466.81;5067728;28;20431;-41
2022/08/12 03:03:12;;;;;;;6.05;4.25;;;;;;;19.86;100.00;96462.94;5077303;28;20080;-42
2022/08/12 03:05:45;;;;;;;4.43;3.95;;;;;;;20.01;100.00;96458.22;5077072;28;20549;-42
2022/08/12 03:08:18;;;;;;;5.50;4.20;;;;;;;20.04;100.00;96460.50;5076779;28;20121;-42
2022/08/12 03:11:04;;;;;;;6.28;3.75;;;;;;;20.05;100.00;96462.13;5082760;28;20080;-47
2022/08/12 03:13:41;;;;;;;8.43;4.20;;;;;;;20.17;100.00;96464.22;5082278;28;20080;-40
2022/08/12 03:16:12;;;;;;;5.63;3.95;;;;;;;19.98;100.00;96461.31;5086398;28;20078;-43
2022/08/12 03:18:42;;;;;;;5.60;3.63;;;;;;;19.90;100.00;96465.00;5078597;28;20088;-43
2022/08/12 03:21:16;;;;;;;6.07;3.92;;;;;;;19.87;100.00;96462.72;5071658;28;20080;-42
2022/08/12 03:24:05;;;;;;;5.68;3.80;;;;;;;19.89;100.00;96460.69;5083445;28;20079;-41
2022/08/12 03:26:35;;;;;;;5.13;3.85;;;;;;;19.98;100.00;96465.84;5089980;28;20067;-42
2022/08/12 03:29:05;;;;;;;9.50;4.10;;;;;;;19.99;100.00;96462.13;5078148;28;20086;-39
2022/08/12 03:31:35;;;;;;;7.63;3.83;;;;;;;20.14;100.00;96463.59;5082173;28;20084;-41
2022/08/12 03:34:06;;;;;;;5.00;3.72;;;;;;;20.06;100.00;96469.16;5077611;28;20087;-43
2022/08/12 03:36:37;;;;;;;5.30;4.15;;;;;;;19.86;100.00;96462.94;5072014;28;20166;-45
2022/08/12 03:39:29;;;;;;;5.20;3.70;;;;;;;20.03;100.00;96461.53;5078550;28;20091;-44
2022/08/12 03:42:21;;;;;;;6.70;3.97;;;;;;;20.01;100.00;96463.59;5077612;28;20072;-42
2022/08/12 04:01:51;;;;;;;8.20;3.95;;;;;;;19.86;100.00;96452.25;5070635;28;20099;-40
2022/08/12 04:04:22;;;;;;;4.32;3.90;;;;;;;19.88;100.00;96445.63;5073578;28;20080;-42
2022/08/12 04:06:50;;;;;;;6.30;4.00;;;;;;;19.75;100.00;96450.13;5089952;28;20087;-42
2022/08/12 04:09:21;;;;;;;4.55;3.80;;;;;;;19.72;100.00;96451.41;5081651;28;20063;-47
2022/08/12 04:14:36;;;;;;;6.97;4.22;;;;;;;19.67;100.00;96457.31;5083843;28;20049;-42
2022/08/12 04:17:05;;;;;;;6.50;4.60;;;;;;;19.53;100.00;96458.28;5072121;28;20553;-45
2022/08/12 04:19:34;;;;;;;5.30;3.85;;;;;;;19.40;100.00;96463.59;5083606;28;20095;-42
2022/08/12 04:22:03;;;;;;;4.73;4.10;;;;;;;19.57;100.00;96464.06;5084705;28;20082;-42
2022/08/12 04:24:33;;;;;;;9.63;4.68;;;;;;;19.81;100.00;96458.19;5079693;28;20481;-39
2022/08/12 04:27:04;;;;;;;4.97;4.40;;;;;;;19.61;100.00;96458.13;5077896;28;20570;-41
2022/08/12 04:29:33;;;;;;;;;;;;;;;19.68;100.00;96461.69;5081396;28;20565;-42
2022/08/12 04:32:22;;;;;;;12.52;4.10;;;;;;;19.36;100.00;96462.34;5076777;28;20339;-41
2022/08/12 04:34:52;;;;;;;7.30;4.53;;;;;;;19.76;100.00;96460.66;5070504;28;20458;-41
2022/08/12 04:37:20;;;;;;;5.18;3.90;;;;;;;20.02;100.00;96469.75;5082843;28;20109;-42
2022/08/12 04:39:49;;;;;;;4.93;4.40;;;;;;;20.54;100.00;96462.81;5077721;28;20091;-45
2022/08/12 04:42:18;;;;;;;4.68;4.05;;;;;;;21.22;100.00;96460.59;5076784;28;20095;-41
2022/08/12 04:44:47;;;;;;;5.93;4.40;;;;;;;21.99;95.16;96458.00;5076962;28;20086;-44
2022/08/12 04:47:16;;;;;;;8.85;4.70;;;;;;;22.80;82.58;96451.78;5076461;28;20081;-43
2022/08/12 04:49:46;;;;;;;5.80;4.40;;;;;;;23.27;74.21;96452.16;5076564;28;20564;-41
2022/08/12 04:52:16;;;;;;;5.80;3.70;;;;;;;22.41;81.38;96451.13;5069749;28;20072;-43
2022/08/12 04:54:45;;;;;;;6.88;5.75;;;;;;;23.21;75.99;96442.28;5071037;28;20084;-43
2022/08/12 04:57:14;;;;;;;6.30;5.00;;;;;;;23.76;70.02;96449.50;5083331;28;20091;-41
2022/08/12 04:59:43;;;;;;;5.57;4.97;;;;;;;24.06;66.79;96449.50;5070180;28;20534;-41
2022/08/12 05:02:17;;;;;;;5.70;5.20;;;;;;;24.20;65.09;96458.19;5081780;28;20076;-40
2022/08/12 05:04:51;;;;;;;6.03;5.05;;;;;;;24.97;61.15;96461.69;5076658;28;20078;-41
2022/08/12 05:07:22;;;;;;;5.38;4.88;;;;;;;25.42;56.66;96454.84;5082050;28;20083;-41
2022/08/12 05:09:51;;;;;;;6.22;5.40;;;;;;;25.44;56.75;96467.03;5084829;28;20529;-41
2022/08/12 05:12:36;;;;;;;6.03;5.00;;;;;;;25.40;57.37;96463.19;5083464;28;20056;-40
2022/08/12 05:15:06;;;;;;;5.97;5.03;;;;;;;26.00;53.46;96470.06;5076570;28;20087;-45
2022/08/12 05:17:55;;;;;;;7.20;5.47;;;;;;;26.26;52.87;96464.03;5089642;28;20125;-40
2022/08/12 05:20:29;;;;;;;6.57;4.68;;;;;;;26.45;51.42;96466.50;5079137;28;20148;-39
2022/08/12 05:23:09;;;;;;;5.80;4.95;;;;;;;26.45;50.99;96469.22;5076141;28;20086;-46
2022/08/12 05:25:41;;;;;;;8.55;4.82;;;;;;;26.41;50.42;96479.69;5076136;28;20076;-44
2022/08/12 05:28:11;;;;;;;5.25;4.75;;;;;;;26.30;52.62;96474.38;5087474;28;20068;-41
2022/08/12 05:30:42;;;;;;;6.53;5.18;;;;;;;26.30;52.35;96475.19;5077217;28;20072;-45
2022/08/12 05:33:11;;;;;;;5.47;4.97;;;;;;;26.11;53.53;96482.69;5083185;28;20083;-44
2022/08/12 05:35:41;;;;;;;5.77;5.07;;;;;;;26.46;53.45;96478.94;5069169;28;20535;-42
2022/08/12 05:41:03;;;;;;;8.05;4.28;;;;;;;26.58;52.13;96482.44;5059472;28;20079;-41
2022/08/12 05:43:33;;;;;;;4.15;3.53;;;;;;;26.33;52.02;96479.28;5082767;28;20080;-40
2022/08/12 05:46:01;;;;;;;5.03;3.80;;;;;;;25.74;53.62;96484.91;5076093;28;20067;-43
2022/08/12 05:48:31;;;;;;;5.22;3.88;;;;;;;25.53;55.00;96486.38;5069698;28;20566;-41
2022/08/12 05:50:59;;;;;;;5.00;3.67;;;;;;;25.01;56.20;96495.22;5080245;28;20534;-43
2022/08/12 05:53:29;;;;;;;9.52;3.65;;;;;;;24.89;60.59;96491.72;5086568;28;20075;-44
2022/08/12 05:55:57;;;;;;;6.10;3.97;;;;;;;24.73;63.73;96490.53;5081912;28;20094;-44
2022/08/12 05:58:26;;;;;;;4.97;3.88;;;;;;;24.01;67.17;96495.97;5079558;28;20160;-40
2022/08/12 06:00:55;;;;;;;5.22;3.55;;;;;;;24.23;70.14;96492.78;5072260;28;20121;-41
2022/08/12 06:03:24;;;;;;;6.15;3.58;;;;;;;24.08;69.05;96487.78;5081747;28;20080;-43
2022/08/12 06:05:55;;;;;;;6.10;3.20;;;;;;;23.93;66.73;96489.03;5085111;28;20064;-47
2022/08/12 06:08:25;;;;;;;5.63;3.42;;;;;;;23.53;69.26;96490.56;5084269;28;20455;-44
2022/08/12 06:10:55;;;;;;;5.55;3.22;;;;;;;23.34;72.86;96498.66;5080296;28;20087;-41
2022/08/12 06:13:24;;;;;;;8.48;3.10;;;;;;;23.38;72.09;96499.00;5079465;28;20532;-39
2022/08/12 06:16:14;;;;;;;6.20;3.75;;;;;;;23.62;74.67;96491.91;5077086;28;20076;-44
2022/08/12 06:18:43;;;;;;;5.30;3.17;;;;;;;23.49;73.10;96495.56;5083211;28;20094;-45
2022/08/12 06:21:14;;;;;;;4.47;3.25;;;;;;;23.45;72.76;96489.81;5075681;28;20501;-41
2022/08/12 06:23:44;;;;;;;5.97;3.80;;;;;;;23.96;71.41;96485.06;5075444;28;20075;-45
2022/08/12 06:26:15;;;;;;;8.50;3.95;;;;;;;24.02;67.98;96484.16;5077028;28;20068;-42
2022/08/12 06:28:44;;;;;;;8.48;3.60;;;;;;;24.02;67.30;96486.84;5086729;28;20466;-41
2022/08/12 06:31:15;;;;;;;5.85;3.22;;;;;;;23.98;67.61;96488.31;5076888;28;20087;-40
2022/08/12 06:33:59;;;;;;;8.32;3.75;;;;;;;24.19;66.11;96484.31;5088658;28;20478;-44
2022/08/12 06:36:47;;;;;;;7.07;3.55;;;;;;;24.39;64.67;96500.16;5082327;28;20100;-42
2022/08/12 06:39:16;;;;;;;4.30;3.30;;;;;;;24.15;66.62;96496.59;5069590;28;20088;-42
2022/08/12 06:44:57;;;;;;;9.95;3.22;;;;;;;24.17;63.73;96500.72;5061471;28;20461;-39
2022/08/12 06:47:26;;;;;;;6.93;2.85;;;;;;;24.48;62.65;96500.72;5085931;28;20043;-43
2022/08/12 06:49:54;;;;;;;4.45;2.80;;;;;;;24.72;63.06;96507.78;5078986;28;20068;-46
2022/08/12 06:52:23;;;;;;;6.82;3.30;;;;;;;24.72;61.64;96496.97;5085282;28;20576;-43
2022/08/12 06:54:54;;;;;;;3.83;3.40;;;;;;;25.27;58.18;96499.34;5079928;28;20102;-41
2022/08/12 06:57:26;;;;;;;;;;;;;;;25.21;59.63;96497.59;5085529;28;20086;-44
2022/08/12 07:00:15;;;;;;;8.45;3.35;;;;;;;24.76;60.87;96503.56;5082810;28;19959;-41
2022/08/12 07:02:45;;;;;;;7.28;3.47;;;;;;;24.99;59.75;96499.22;5076298;28;20085;-45
2022/08/12 07:05:13;;;;;;;5.65;3.13;;;;;;;25.06;59.34;96500.75;5078583;28;20075;-44
2022/08/12 07:07:45;;;;;;;6.43;2.80;;;;;;;25.75;59.24;96489.28;5085780;28;20079;-41
2022/08/12 07:10:13;;;;;;;6.85;2.85;;;;;;;25.53;54.78;96489.09;5088466;28;20072;-44
2022/08/12 07:12:44;;;;;;;6.45;3.00;;;;;;;24.94;60.64;96493.72;5083240;28;20072;-40
2022/08/12 07:15:12;;;;;;;7.20;3.10;;;;;;;24.77;60.70;96489.00;5086814;28;20072;-40
2022/08/12 07:17:40;;;;;;;5.28;3.00;;;;;;;24.53;64.18;96492.72;5082336;28;20095;-41
2022/08/12 07:20:11;;;;;;;4.25;2.90;;;;;;;25.13;59.71;96500.66;5079640;28;20452;-40
2022/08/12 07:23:00;;;;;;;6.18;3.20;;;;;;;24.88;58.10;96500.88;5072755;28;20079;-44
2022/08/12 07:25:33;;;;;;;4.67;2.60;;;;;;;24.91;59.25;96497.69;5076522;28;20550;-44
2022/08/12 07:28:12;;;;;;;4.55;3.00;;;;;;;25.01;59.23;96508.72;5075575;28;20079;-43
2022/08/12 07:30:45;;;;;;;4.85;2.92;;;;;;;25.24;58.39;96497.13;5077870;28;20541;-42
2022/08/12 07:33:15;;;;;;;4.88;2.63;;;;;;;25.48;56.76;96497.09;5079804;28;20095;-42
2022/08/12 07:35:46;;;;;;;6.47;2.67;;;;;;;26.17;55.42;96494.41;5076973;28;20079;-40
2022/08/12 07:38:24;;;;;;;6.45;3.20;;;;;;;25.99;56.24;96496.25;5085372;28;20088;-46
2022/08/12 07:41:01;;;;;;;4.95;2.78;;;;;;;26.33;54.31;96492.81;5078489;28;20086;-39
2022/08/12 07:43:34;;;;;;;5.10;2.75;;;;;;;26.43;54.99;96490.28;5077803;28;20080;-42
2022/08/12 07:46:04;;;;;;;4.68;2.97;;;;;;;26.65;51.62;96502.03;5071186;28;20122;-41
2022/08/12 07:48:37;;;;;;;5.05;3.08;;;;;;;26.46;52.31;96498.72;5074156;28;20087;-43
2022/08/12 07:51:05;;;;;;;5.00;2.97;;;;;;;25.90;52.96;96495.00;5082129;28;20080;-41
2022/08/12 07:53:35;;;;;;;5.72;2.70;;;;;;;26.52;51.03;96495.06;5076703;28;20087;-43
2022/08/12 07:56:23;;;;;;;9.38;2.97;;;;;;;26.55;50.92;96491.06;5084972;28;20513;-43
2022/08/12 07:58:54;;;;;;;5.97;2.70;;;;;;;26.56;48.92;96491.88;5088753;28;20071;-41
2022/08/12 08:01:22;;;;;;;7.32;2.97;;;;;;;26.65;50.15;96493.94;5081215;28;20159;-41
2022/08/12 08:06:45;;;;;;;7.05;2.70;;;;;;;27.15;47.01;96494.97;5078556;28;20083;-39
2022/08/12 08:09:17;;;;;;;5.10;2.88;;;;;;;26.73;47.30;96492.69;5085018;28;20078;-44
2022/08/12 08:14:32;;;;;;;4.55;2.92;;;;;;;26.78;47.39;96497.38;5071806;28;20447;-41
2022/08/12 08:17:05;;;;;;;8.10;2.80;;;;;;;26.18;48.24;96506.84;5077860;28;20455;-41
2022/08/12 08:19:33;;;;;;;4.22;2.58;;;;;;;26.25;49.43;96502.94;5084363;28;20075;-45
2022/08/12 08:22:22;;;;;;;4.82;2.70;;;;;;;27.32;46.88;96494.94;5074123;28;20079;-39
2022/08/12 08:25:09;;;;;;;5.20;2.75;;;;;;;27.05;48.30;96497.50;5073826;28;20083;-44
2022/08/12 08:27:59;;;;;;;6.30;2.88;;;;;;;27.72;45.44;96494.63;5080373;28;20095;-42
2022/08/12 08:30:29;;;;;;;4.63;2.90;;;;;;;27.77;45.41;96491.19;5074989;28;20068;-41
2022/08/12 08:32:58;;;;;;;8.68;2.65;;;;;;;27.11;44.27;96497.31;5069893;28;20087;-41
2022/08/12 08:35:26;;;;;;;5.55;2.53;;;;;;;27.75;43.96;96493.31;5070904;28;20063;-40
2022/08/12 08:38:16;;;;;;;4.88;2.60;;;;;;;28.07;43.01;96488.81;5075164;28;20509;-41
2022/08/12 08:44:06;;;;;;;4.32;2.80;;;;;;;27.69;42.86;96485.13;5076713;28;20072;-41
2022/08/12 08:46:36;;;;;;;4.20;2.90;;;;;;;28.09;43.18;96492.13;5076923;28;20088;-41
2022/08/12 08:49:05;;;;;;;5.70;2.70;;;;;;;28.09;42.24;96483.16;5070730;28;20064;-46
2022/08/12 08:51:34;;;;;;;8.23;3.58;;;;;;;28.27;42.00;96485.50;5085555;28;20079;-40
2022/08/12 08:54:02;;;;;;;4.15;2.60;;;;;;;28.52;41.22;96493.09;5074798;28;20566;-44
2022/08/12 08:56:31;;;;;;;4.88;3.05;;;;;;;28.76;40.55;96490.03;5077490;28;20082;-42
2022/08/12 08:58:59;;;;;;;5.85;2.65;;;;;;;28.65;41.64;96500.00;5084445;28;20084;-41
2022/08/12 09:01:29;;;;;;;6.90;3.35;;;;;;;27.93;41.82;96501.97;5075985;28;20084;-43
2022/08/12 09:04:09;;;;;;;4.45;2.50;;;;;;;29.15;40.64;96496.06;5087913;28;20064;-42
2022/08/12 09:06:59;;;;;;;7.18;2.63;;;;;;;28.39;40.58;96498.97;5081952;28;20075;-42
2022/08/12 09:09:49;;;;;;;2.80;2.42;;;;;;;27.86;41.38;96492.41;5076194;28;20090;-41
2022/08/12 09:15:29;;;;;;;3.95;2.47;;;;;;;28.61;40.88;96491.53;5077321;28;20076;-41
2022/08/12 09:18:04;;;;;;;4.78;2.38;;;;;;;27.98;41.35;96497.66;5077081;28;20461;-43
2022/08/12 09:20:54;;;;;;;5.50;2.60;;;;;;;27.79;41.75;96489.88;5076640;28;20079;-41
2022/08/12 09:23:22;;;;;;;5.63;2.15;;;;;;;28.42;41.04;96484.84;5080952;28;20166;-41
2022/08/12 09:26:11;;;;;;;4.70;2.60;;;;;;;29.10;39.92;96493.28;5069447;28;20060;-42
2022/08/12 09:28:39;;;;;;;3.50;2.45;;;;;;;29.78;39.98;96496.94;5085706;28;20088;-41
2022/08/12 09:31:08;;;;;;;3.97;2.40;;;;;;;28.43;39.90;96485.69;5076458;28;20099;-45
2022/08/12 09:33:56;;;;;;;3.15;2.47;;;;;;;29.46;39.29;96496.22;5076268;28;20479;-41
2022/08/12 09:36:46;;;;;;;3.80;2.28;;;;;;;29.40;38.56;96489.13;5076061;28;20076;-40
2022/08/12 09:39:29;;;;;;;7.10;2.17;;;;;;;29.34;38.70;96489.09;5077614;28;20091;-39
2022/08/12 09:45:23;;;;;;;3.80;2.28;;;;;;;28.76;39.12;96498.97;5084955;28;20084;-41
2022/08/12 09:48:15;;;;;;;5.97;2.53;;;;;;;28.56;39.70;96494.22;5083979;28;20083;-39
2022/08/12 09:50:50;;;;;;;5.30;2.63;;;;;;;29.24;39.30;96493.66;5085998;28;20079;-44
2022/08/12 09:53:25;;;;;;;3.55;2.00;;;;;;;29.79;37.80;96487.69;5071640;28;20080;-42
2022/08/12 09:56:04;;;;;;;3.47;2.17;;;;;;;30.10;36.91;96492.41;5078436;28;20087;-44
2022/08/12 09:58:52;;;;;;;3.78;2.08;;;;;;;30.51;36.72;96494.13;5081769;28;20086;-44
2022/08/12 10:01:28;;;;;;;4.65;2.30;;;;;;;30.17;36.88;96484.81;5088286;28;20091;-41
2022/08/12 10:04:16;;;;;;;4.47;2.38;;;;;;;29.96;36.86;96481.22;5084828;28;20062;-44
2022/08/12 10:06:47;;;;;;;3.72;2.30;;;;;;;30.20;37.00;96467.97;5087816;28;20147;-47
2022/08/12 10:09:26;;;;;;;7.65;2.13;;;;;;;30.31;36.45;96469.63;5079118;28;20063;-41
2022/08/12 10:15:20;;;;;;;3.60;1.90;;;;;;;29.54;36.20;96490.28;5081562;28;20087;-41
2022/08/12 10:18:09;;;;;;;4.50;1.80;;;;;;;29.85;35.96;96482.28;5086724;28;20079;-43
2022/08/12 10:20:38;;;;;;;5.93;2.00;;;;;;;29.83;35.82;96479.81;5087702;28;20491;-41
2022/08/12 10:23:07;;;;;;;3.67;1.60;;;;;;;29.66;35.94;96493.59;5088948;28;20544;-46
2022/08/12 10:31:53;;;;;;;3.05;1.75;;;;;;;29.73;34.87;96479.78;5079771;28;20574;-45
2022/08/12 10:34:42;;;;;;;3.60;1.83;;;;;;;29.70;35.58;96481.16;5085807;28;20078;-40
2022/08/12 10:37:24;;;;;;;3.72;1.67;;;;;;;29.40;36.07;96465.50;5078509;28;20071;-44
2022/08/12 10:40:12;;;;;;;2.75;1.83;;;;;;;29.40;35.30;96470.91;5082389;28;20088;-40
2022/08/12 10:45:36;;;;;;;2.00;1.50;;;;;;;29.91;35.61;96454.03;5094353;28;20511;-50
2022/08/12 10:48:06;;;;;;;3.67;1.65;;;;;;;29.66;36.11;96471.06;5091270;28;20068;-43
2022/08/12 10:50:54;;;;;;;3.72;1.50;;;;;;;30.00;34.20;96458.66;5088896;28;20059;-40
2022/08/12 10:53:30;;;;;;;3.00;1.67;;;;;;;29.48;35.12;96451.38;5081806;28;20063;-44
2022/08/12 10:56:14;;;;;;;4.43;1.60;;;;;;;29.00;35.90;96457.91;5088704;28;20075;-42
2022/08/12 10:58:44;;;;;;;2.85;1.52;;;;;;;30.28;35.01;96445.66;5085548;28;20079;-44
2022/08/12 11:01:15;;;;;;;1.73;1.40;;;;;;;29.36;36.09;96455.41;5079415;28;20080;-42
2022/08/12 11:04:09;;;;;;;2.92;1.35;;;;;;;29.41;35.87;96448.09;5075015;28;20499;-41
2022/08/12 11:06:58;;;;;;;2.13;1.40;;;;;;;29.81;35.02;96441.22;5091840;28;20086;-40
2022/08/12 11:09:47;;;;;;;6.10;1.50;;;;;;;30.20;34.46;96438.88;5081448;28;20076;-38
2022/08/12 11:12:29;;;;;;;1.52;1.08;;;;;;;29.18;34.88;96445.81;5086899;28;20068;-41
2022/08/12 11:15:21;;;;;;;3.20;1.40;;;;;;;30.03;33.72;96436.34;5078963;28;20153;-44
2022/08/12 11:17:51;;;;;;;3.05;1.05;;;;;;;30.11;33.50;96426.88;5081691;28;20083;-48
2022/08/12 11:20:23;;;;;;;3.50;1.30;;;;;;;29.82;33.13;96440.13;5075296;28;20083;-42
2022/08/12 11:23:00;;;;;;;2.90;1.30;;;;;;;30.64;32.11;96422.00;5088611;28;20067;-43
2022/08/12 11:25:49;;;;;;;3.60;1.38;;;;;;;31.24;32.04;96415.91;5089031;28;20080;-41
2022/08/12 11:28:25;;;;;;;2.03;1.05;;;;;;;30.86;32.92;96413.56;5074828;28;20068;-41
2022/08/12 11:31:04;;;;;;;4.53;1.38;;;;;;;31.28;31.75;96423.28;5084692;28;20071;-43
2022/08/12 11:33:32;;;;;;;;;;;;;;;30.99;31.33;96412.19;5087862;28;20113;-46
2022/08/12 11:36:20;;;;;;;1.70;1.30;;;;;;;30.82;32.18;96403.50;5087035;28;19950;-44
2022/08/12 11:38:49;;;;;;;1.95;1.00;;;;;;;30.16;33.01;96412.44;5090053;28;20055;-43
2022/08/12 11:41:19;;;;;;;4.95;1.00;;;;;;;31.19;31.49;96406.66;5078615;28;20063;-45
2022/08/12 11:43:59;;;;;;;4.07;1.30;;;;;;;30.78;31.68;96403.22;5080287;28;20074;-44
2022/08/12 11:46:49;;;;;;;4.07;1.38;;;;;;;30.22;32.73;96414.94;5084707;28;20084;-43
2022/08/12 11:49:22;;;;;;;6.28;1.60;;;;;;;30.27;32.11;96412.22;5071749;28;20074;-42
2022/08/12 11:52:01;;;;;;;2.47;1.27;;;;;;;30.31;32.63;96407.03;5085781;28;20071;-43
2022/08/12 11:54:29;;;;;;;;;;;;;;;30.54;32.14;96404.88;5076492;28;20088;-48
2022/08/12 11:56:58;;;;;;;1.80;1.10;;;;;;;30.47;32.24;96400.50;5079640;28;19955;-43
2022/08/12 11:59:30;;;;;;;1.88;1.23;;;;;;;30.54;32.22;96407.59;5075022;28;20084;-48
2022/08/12 12:02:20;;;;;;;4.88;1.38;;;;;;;29.85;33.10;96398.00;5070611;28;20149;-43
2022/08/12 12:04:49;;;;;;;1.10;1.00;;;;;;;29.41;33.40;96399.19;5078171;28;20091;-41
2022/08/12 12:07:22;;;;;;;2.10;1.10;;;;;;;29.22;33.28;96400.75;5077869;28;20435;-43
2022/08/12 12:10:11;;;;;;;1.33;1.13;;;;;;;29.79;34.04;96397.97;5083858;28;20076;-41
2022/08/12 12:12:41;;;;;;;3.83;1.30;;;;;;;30.37;32.98;96386.09;5077988;28;20083;-44
2022/08/12 12:15:18;;;;;;;1.80;1.20;;;;;;;30.32;32.72;96389.66;5082181;28;20075;-42
2022/08/12 12:17:54;;;;;;;2.72;1.30;;;;;;;29.92;33.47;96395.84;5072714;28;20087;-42
2022/08/12 12:20:23;;;;;;;1.48;1.27;;;;;;;29.70;33.54;96394.16;5075838;28;20076;-42
2022/08/12 12:22:55;;;;;;;2.85;1.30;;;;;;;30.64;32.20;96386.63;5081168;28;20539;-42
2022/08/12 12:25:23;;;;;;;1.60;1.25;;;;;;;30.28;32.08;96385.81;5084868;28;20091;-46
2022/08/12 12:28:12;;;;;;;2.70;1.40;;;;;;;31.30;31.81;96382.91;5075233;28;20083;-45
2022/08/12 12:31:01;;;;;;;1.88;1.20;;;;;;;31.12;30.71;96375.38;5077234;28;20576;-40
2022/08/12 12:33:33;;;;;;;4.65;1.17;;;;;;;31.16;31.03;96373.72;5088350;28;20078;-40
2022/08/12 12:36:21;;;;;;;;;;;;;;;31.11;31.20;96376.44;5082387;28;20068;-41
2022/08/12 12:38:57;;;;;;;2.97;1.15;;;;;;;31.64;30.32;96357.72;5081560;28;19947;-41
2022/08/12 12:41:28;;;;;;;1.25;1.10;;;;;;;31.56;30.38;96369.22;5086722;28;20067;-41
2022/08/12 12:44:16;;;;;;;1.13;0.90;;;;;;;30.79;30.72;96363.19;5070624;28;20068;-41
2022/08/12 12:47:05;;;;;;;3.63;1.10;;;;;;;30.62;30.31;96363.47;5085027;28;20494;-42
2022/08/12 12:49:55;;;;;;;1.52;1.00;;;;;;;30.71;30.70;96350.94;5084583;28;20083;-43
2022/08/12 12:52:23;;;;;;;0.98;0.90;;;;;;;31.73;29.10;96353.31;5075994;28;20075;-44
2022/08/12 12:54:56;;;;;;;1.70;1.08;;;;;;;31.37;30.69;96348.03;5083582;28;20082;-41
2022/08/12 12:57:25;;;;;;;1.98;0.98;;;;;;;30.69;31.88;96344.94;5081537;28;20079;-41
2022/08/12 13:00:14;;;;;;;0.77;0.70;;;;;;;30.39;31.19;96354.81;5085250;28;20071;-42
2022/08/12 13:02:49;;;;;;;0.88;0.82;;;;;;;29.99;31.90;96344.72;5069683;28;20044;-42
2022/08/12 13:05:24;;;;;;;1.15;0.90;;;;;;;29.59;31.92;96351.72;5077228;28;20072;-45
2022/08/12 13:07:57;;;;;;;2.15;1.13;;;;;;;30.71;31.11;96342.78;5080683;28;20071;-42
2022/08/12 13:10:30;;;;;;;1.42;0.90;;;;;;;30.44;30.73;96335.75;5082308;28;20043;-45
2022/08/12 13:13:05;;;;;;;2.35;1.20;;;;;;;30.55;30.87;96344.69;5083998;28;20080;-44
2022/08/12 13:15:53;;;;;;;2.47;1.00;;;;;;;31.85;29.43;96333.84;5078282;28;20532;-44
2022/08/12 13:18:27;;;;;;;3.92;0.80;;;;;;;31.39;30.73;96336.88;5080951;28;20071;-43
2022/08/12 13:20:58;;;;;;;1.73;0.80;;;;;;;31.58;29.66;96345.19;5078669;28;20078;-41
2022/08/12 13:23:27;;;;;;;2.17;0.93;;;;;;;31.39;29.46;96345.03;5089334;28;20079;-42
2022/08/12 13:26:06;;;;;;;0.98;0.70;;;;;;;31.38;29.85;96333.34;5082806;28;20135;-41
2022/08/12 13:28:44;;;;;;;1.63;0.70;;;;;;;31.78;29.53;96325.97;5077246;28;20439;-41
2022/08/12 13:31:23;;;;;;;1.85;0.90;;;;;;;31.78;29.60;96327.91;5083304;28;20080;-41
2022/08/12 13:33:54;;;;;;;2.35;0.80;;;;;;;30.90;30.10;96329.41;5083651;28;20080;-42
2022/08/12 13:36:45;;;;;;;1.20;0.93;;;;;;;30.98;30.37;96323.41;5080501;28;20569;-41
2022/08/12 13:39:14;;;;;;;7.50;0.80;;;;;;;30.76;29.93;96325.63;5071746;28;20079;-41
2022/08/12 13:41:43;;;;;;;1.20;0.80;;;;;;;30.62;29.85;96330.81;5080246;28;20517;-41
2022/08/12 13:44:12;;;;;;;2.58;0.85;;;;;;;30.95;29.28;96321.22;5084467;28;20103;-45
2022/08/12 13:46:41;;;;;;;0.80;0.80;;;;;;;30.99;30.08;96314.13;5083687;28;20086;-44
2022/08/12 13:49:12;;;;;;;1.52;0.80;;;;;;;30.82;30.36;96319.09;5070792;28;20099;-41
2022/08/12 13:52:02;;;;;;;2.28;0.80;;;;;;;31.66;28.94;96311.91;5069531;28;20084;-42
2022/08/12 13:54:31;;;;;;;1.88;0.82;;;;;;;31.24;29.89;96310.47;5081529;28;20086;-42
2022/08/12 13:57:00;;;;;;;2.33;0.90;;;;;;;31.53;28.61;96312.53;5069568;28;20064;-40
2022/08/12 13:59:29;;;;;;;1.35;0.90;;;;;;;30.33;29.76;96319.72;5075847;28;20061;-40